sensor_id;sensor_type;location;lat;lon;timestamp;P1;durP1;ratioP1;P2;durP2;ratioP2
69754;SDS011;57023;52.218;5.158;2023-01-23T00:01:47;13.57;;;7.88;;
69754;SDS011;57023;52.218;5.158;2023-01-23T00:04:14;12.55;;;7.45;;
69754;SDS011;57023;52.218;5.158;2023-01-23T00:06:39;14.75;;;8.10;;
69754;SDS011;57023;52.218;5.158;2023-01-23T00:09:05;19.40;;;8.48;;
69754;SDS011;57023;52.218;5.158;2023-01-23T00:11:30;17.33;;;8.45;;
69754;SDS011;57023;52.218;5.158;2023-01-23T00:13:56;19.73;;;8.52;;
69754;SDS011;57023;52.218;5.158;2023-01-23T00:16:23;14.02;;;7.88;;
69754;SDS011;57023;52.218;5.158;2023-01-23T00:18:49;15.57;;;8.27;;
69754;SDS011;57023;52.218;5.158;2023-01-23T00:21:19;15.30;;;8.73;;
69754;SDS011;57023;52.218;5.158;2023-01-23T00:23:47;15.18;;;7.78;;
69754;SDS011;57023;52.218;5.158;2023-01-23T00:26:16;15.57;;;8.35;;
69754;SDS011;57023;52.218;5.158;2023-01-23T00:28:45;15.23;;;7.97;;
69754;SDS011;57023;52.218;5.158;2023-01-23T00:31:16;14.02;;;8.10;;
69754;SDS011;57023;52.218;5.158;2023-01-23T00:33:43;15.77;;;8.13;;
69754;SDS011;57023;52.218;5.158;2023-01-23T00:36:10;17.13;;;8.53;;
69754;SDS011;57023;52.218;5.158;2023-01-23T00:38:36;14.45;;;8.20;;
69754;SDS011;57023;52.218;5.158;2023-01-23T00:41:01;16.20;;;8.65;;
69754;SDS011;57023;52.218;5.158;2023-01-23T00:43:28;15.40;;;8.63;;
69754;SDS011;57023;52.218;5.158;2023-01-23T00:45:54;17.00;;;8.88;;
69754;SDS011;57023;52.218;5.158;2023-01-23T00:48:19;14.57;;;8.45;;
69754;SDS011;57023;52.218;5.158;2023-01-23T00:50:45;15.60;;;9.13;;
69754;SDS011;57023;52.218;5.158;2023-01-23T00:53:10;17.05;;;8.50;;
69754;SDS011;57023;52.218;5.158;2023-01-23T00:55:37;19.67;;;8.55;;
69754;SDS011;57023;52.218;5.158;2023-01-23T00:58:02;16.02;;;8.57;;
69754;SDS011;57023;52.218;5.158;2023-01-23T01:00:27;16.95;;;8.55;;
69754;SDS011;57023;52.218;5.158;2023-01-23T01:02:53;14.23;;;8.00;;
69754;SDS011;57023;52.218;5.158;2023-01-23T01:05:18;16.42;;;8.57;;
69754;SDS011;57023;52.218;5.158;2023-01-23T01:07:43;20.15;;;8.68;;
69754;SDS011;57023;52.218;5.158;2023-01-23T01:10:10;17.30;;;8.60;;
69754;SDS011;57023;52.218;5.158;2023-01-23T01:12:35;16.05;;;8.68;;
69754;SDS011;57023;52.218;5.158;2023-01-23T01:15:01;16.42;;;8.32;;
69754;SDS011;57023;52.218;5.158;2023-01-23T01:17:26;14.63;;;8.25;;
69754;SDS011;57023;52.218;5.158;2023-01-23T01:19:52;16.40;;;8.18;;
69754;SDS011;57023;52.218;5.158;2023-01-23T01:22:17;16.55;;;8.68;;
69754;SDS011;57023;52.218;5.158;2023-01-23T01:24:42;17.33;;;8.43;;
69754;SDS011;57023;52.218;5.158;2023-01-23T01:27:08;19.30;;;8.80;;
69754;SDS011;57023;52.218;5.158;2023-01-23T01:29:33;15.50;;;8.70;;
69754;SDS011;57023;52.218;5.158;2023-01-23T01:31:58;17.98;;;8.70;;
69754;SDS011;57023;52.218;5.158;2023-01-23T01:34:24;17.08;;;8.82;;
69754;SDS011;57023;52.218;5.158;2023-01-23T01:36:49;15.48;;;8.25;;
69754;SDS011;57023;52.218;5.158;2023-01-23T01:39:15;19.65;;;9.35;;
69754;SDS011;57023;52.218;5.158;2023-01-23T01:41:41;15.00;;;8.60;;
69754;SDS011;57023;52.218;5.158;2023-01-23T01:44:09;16.77;;;8.85;;
69754;SDS011;57023;52.218;5.158;2023-01-23T01:46:40;21.25;;;9.80;;
69754;SDS011;57023;52.218;5.158;2023-01-23T01:49:13;19.23;;;8.82;;
69754;SDS011;57023;52.218;5.158;2023-01-23T01:51:54;17.35;;;8.60;;
69754;SDS011;57023;52.218;5.158;2023-01-23T01:54:24;17.02;;;8.73;;
69754;SDS011;57023;52.218;5.158;2023-01-23T01:57:06;17.88;;;9.25;;
69754;SDS011;57023;52.218;5.158;2023-01-23T01:59:34;17.25;;;9.38;;
69754;SDS011;57023;52.218;5.158;2023-01-23T02:02:05;15.30;;;8.80;;
69754;SDS011;57023;52.218;5.158;2023-01-23T02:04:34;16.90;;;9.25;;
69754;SDS011;57023;52.218;5.158;2023-01-23T02:07:02;15.60;;;8.88;;
69754;SDS011;57023;52.218;5.158;2023-01-23T02:09:32;17.42;;;8.73;;
69754;SDS011;57023;52.218;5.158;2023-01-23T02:11:58;16.70;;;8.90;;
69754;SDS011;57023;52.218;5.158;2023-01-23T02:14:26;18.02;;;8.82;;
69754;SDS011;57023;52.218;5.158;2023-01-23T02:16:52;15.18;;;8.60;;
69754;SDS011;57023;52.218;5.158;2023-01-23T02:22:09;16.23;;;9.38;;
69754;SDS011;57023;52.218;5.158;2023-01-23T02:27:08;20.55;;;8.55;;
69754;SDS011;57023;52.218;5.158;2023-01-23T02:29:40;16.02;;;8.23;;
69754;SDS011;57023;52.218;5.158;2023-01-23T02:32:06;16.20;;;8.73;;
69754;SDS011;57023;52.218;5.158;2023-01-23T02:34:32;16.20;;;8.55;;
69754;SDS011;57023;52.218;5.158;2023-01-23T02:36:58;17.48;;;8.48;;
69754;SDS011;57023;52.218;5.158;2023-01-23T02:39:24;17.15;;;8.85;;
69754;SDS011;57023;52.218;5.158;2023-01-23T02:41:49;15.75;;;8.50;;
69754;SDS011;57023;52.218;5.158;2023-01-23T02:44:20;19.05;;;9.10;;
69754;SDS011;57023;52.218;5.158;2023-01-23T02:46:50;15.68;;;8.95;;
69754;SDS011;57023;52.218;5.158;2023-01-23T02:49:18;15.38;;;8.70;;
69754;SDS011;57023;52.218;5.158;2023-01-23T02:51:44;16.17;;;9.10;;
69754;SDS011;57023;52.218;5.158;2023-01-23T02:54:09;15.63;;;8.77;;
69754;SDS011;57023;52.218;5.158;2023-01-23T02:56:34;18.15;;;9.05;;
69754;SDS011;57023;52.218;5.158;2023-01-23T02:59:00;16.80;;;8.45;;
69754;SDS011;57023;52.218;5.158;2023-01-23T03:01:44;18.13;;;8.95;;
69754;SDS011;57023;52.218;5.158;2023-01-23T03:04:09;16.50;;;8.75;;
69754;SDS011;57023;52.218;5.158;2023-01-23T03:06:35;18.17;;;9.38;;
69754;SDS011;57023;52.218;5.158;2023-01-23T03:09:07;17.92;;;9.40;;
69754;SDS011;57023;52.218;5.158;2023-01-23T03:11:34;17.63;;;8.52;;
69754;SDS011;57023;52.218;5.158;2023-01-23T03:14:01;20.20;;;9.07;;
69754;SDS011;57023;52.218;5.158;2023-01-23T03:16:26;17.23;;;8.93;;
69754;SDS011;57023;52.218;5.158;2023-01-23T03:18:52;17.55;;;9.18;;
69754;SDS011;57023;52.218;5.158;2023-01-23T03:21:18;17.20;;;8.57;;
69754;SDS011;57023;52.218;5.158;2023-01-23T03:23:43;15.02;;;8.50;;
69754;SDS011;57023;52.218;5.158;2023-01-23T03:26:11;18.75;;;8.55;;
69754;SDS011;57023;52.218;5.158;2023-01-23T03:28:37;15.32;;;9.13;;
69754;SDS011;57023;52.218;5.158;2023-01-23T03:31:20;17.50;;;8.98;;
69754;SDS011;57023;52.218;5.158;2023-01-23T03:33:46;22.15;;;9.15;;
69754;SDS011;57023;52.218;5.158;2023-01-23T03:36:11;17.52;;;9.45;;
69754;SDS011;57023;52.218;5.158;2023-01-23T03:38:37;16.33;;;9.07;;
69754;SDS011;57023;52.218;5.158;2023-01-23T03:41:03;17.25;;;8.70;;
69754;SDS011;57023;52.218;5.158;2023-01-23T03:43:47;16.83;;;9.35;;
69754;SDS011;57023;52.218;5.158;2023-01-23T03:46:12;17.73;;;8.98;;
69754;SDS011;57023;52.218;5.158;2023-01-23T03:48:37;17.38;;;8.70;;
69754;SDS011;57023;52.218;5.158;2023-01-23T03:51:03;16.52;;;9.02;;
69754;SDS011;57023;52.218;5.158;2023-01-23T03:53:29;17.50;;;8.60;;
69754;SDS011;57023;52.218;5.158;2023-01-23T03:55:54;16.13;;;8.13;;
69754;SDS011;57023;52.218;5.158;2023-01-23T03:58:19;17.00;;;8.65;;
69754;SDS011;57023;52.218;5.158;2023-01-23T04:00:45;19.70;;;8.98;;
69754;SDS011;57023;52.218;5.158;2023-01-23T04:03:10;14.73;;;8.85;;
69754;SDS011;57023;52.218;5.158;2023-01-23T04:05:35;15.48;;;8.45;;
69754;SDS011;57023;52.218;5.158;2023-01-23T04:08:01;18.02;;;9.20;;
69754;SDS011;57023;52.218;5.158;2023-01-23T04:10:26;16.15;;;8.73;;
69754;SDS011;57023;52.218;5.158;2023-01-23T04:12:52;14.98;;;8.35;;
69754;SDS011;57023;52.218;5.158;2023-01-23T04:15:17;18.98;;;8.98;;
69754;SDS011;57023;52.218;5.158;2023-01-23T04:17:42;16.48;;;9.15;;
69754;SDS011;57023;52.218;5.158;2023-01-23T04:20:08;16.13;;;8.73;;
69754;SDS011;57023;52.218;5.158;2023-01-23T04:22:34;19.00;;;9.18;;
69754;SDS011;57023;52.218;5.158;2023-01-23T04:25:00;16.10;;;8.82;;
69754;SDS011;57023;52.218;5.158;2023-01-23T04:27:25;16.30;;;8.43;;
69754;SDS011;57023;52.218;5.158;2023-01-23T04:29:50;14.00;;;8.00;;
69754;SDS011;57023;52.218;5.158;2023-01-23T04:32:16;15.80;;;9.48;;
69754;SDS011;57023;52.218;5.158;2023-01-23T04:34:41;17.58;;;8.73;;
69754;SDS011;57023;52.218;5.158;2023-01-23T04:37:06;15.40;;;9.20;;
69754;SDS011;57023;52.218;5.158;2023-01-23T04:39:32;18.08;;;8.82;;
69754;SDS011;57023;52.218;5.158;2023-01-23T04:41:57;16.58;;;8.18;;
69754;SDS011;57023;52.218;5.158;2023-01-23T04:44:22;16.73;;;9.18;;
69754;SDS011;57023;52.218;5.158;2023-01-23T04:46:49;17.88;;;8.73;;
69754;SDS011;57023;52.218;5.158;2023-01-23T04:49:17;16.10;;;9.05;;
69754;SDS011;57023;52.218;5.158;2023-01-23T04:51:43;17.05;;;10.10;;
69754;SDS011;57023;52.218;5.158;2023-01-23T04:54:09;19.88;;;8.93;;
69754;SDS011;57023;52.218;5.158;2023-01-23T04:56:35;16.60;;;9.25;;
69754;SDS011;57023;52.218;5.158;2023-01-23T04:59:00;19.23;;;9.57;;
69754;SDS011;57023;52.218;5.158;2023-01-23T05:01:26;19.27;;;9.43;;
69754;SDS011;57023;52.218;5.158;2023-01-23T05:03:51;17.20;;;9.18;;
69754;SDS011;57023;52.218;5.158;2023-01-23T05:06:17;19.23;;;9.18;;
69754;SDS011;57023;52.218;5.158;2023-01-23T05:08:42;18.83;;;9.90;;
69754;SDS011;57023;52.218;5.158;2023-01-23T05:11:08;18.63;;;9.63;;
69754;SDS011;57023;52.218;5.158;2023-01-23T05:13:33;15.52;;;8.65;;
69754;SDS011;57023;52.218;5.158;2023-01-23T05:15:59;16.95;;;9.60;;
69754;SDS011;57023;52.218;5.158;2023-01-23T05:18:24;17.90;;;9.73;;
69754;SDS011;57023;52.218;5.158;2023-01-23T05:20:49;17.13;;;9.02;;
69754;SDS011;57023;52.218;5.158;2023-01-23T05:23:15;21.23;;;9.88;;
69754;SDS011;57023;52.218;5.158;2023-01-23T05:25:41;17.05;;;9.98;;
69754;SDS011;57023;52.218;5.158;2023-01-23T05:28:06;21.90;;;10.55;;
69754;SDS011;57023;52.218;5.158;2023-01-23T05:30:31;19.08;;;9.90;;
69754;SDS011;57023;52.218;5.158;2023-01-23T05:32:57;18.48;;;9.27;;
69754;SDS011;57023;52.218;5.158;2023-01-23T05:35:22;19.23;;;9.68;;
69754;SDS011;57023;52.218;5.158;2023-01-23T05:37:51;18.30;;;9.63;;
69754;SDS011;57023;52.218;5.158;2023-01-23T05:40:16;18.10;;;9.32;;
69754;SDS011;57023;52.218;5.158;2023-01-23T05:42:42;17.92;;;9.68;;
69754;SDS011;57023;52.218;5.158;2023-01-23T05:45:07;16.10;;;9.50;;
69754;SDS011;57023;52.218;5.158;2023-01-23T05:47:33;18.58;;;9.65;;
69754;SDS011;57023;52.218;5.158;2023-01-23T05:49:58;18.17;;;10.07;;
69754;SDS011;57023;52.218;5.158;2023-01-23T05:52:25;18.63;;;9.43;;
69754;SDS011;57023;52.218;5.158;2023-01-23T05:54:50;18.50;;;10.35;;
69754;SDS011;57023;52.218;5.158;2023-01-23T05:57:15;20.83;;;9.70;;
69754;SDS011;57023;52.218;5.158;2023-01-23T05:59:41;20.40;;;9.63;;
69754;SDS011;57023;52.218;5.158;2023-01-23T06:02:06;16.02;;;9.63;;
69754;SDS011;57023;52.218;5.158;2023-01-23T06:04:32;20.80;;;9.77;;
69754;SDS011;57023;52.218;5.158;2023-01-23T06:06:57;18.00;;;9.82;;
69754;SDS011;57023;52.218;5.158;2023-01-23T06:09:22;23.10;;;10.48;;
69754;SDS011;57023;52.218;5.158;2023-01-23T06:11:47;18.52;;;9.73;;
69754;SDS011;57023;52.218;5.158;2023-01-23T06:14:13;20.48;;;11.18;;
69754;SDS011;57023;52.218;5.158;2023-01-23T06:16:38;17.15;;;9.63;;
69754;SDS011;57023;52.218;5.158;2023-01-23T06:19:03;19.95;;;9.98;;
69754;SDS011;57023;52.218;5.158;2023-01-23T06:21:29;21.17;;;9.20;;
69754;SDS011;57023;52.218;5.158;2023-01-23T06:23:54;19.83;;;9.85;;
69754;SDS011;57023;52.218;5.158;2023-01-23T06:26:20;19.95;;;10.18;;
69754;SDS011;57023;52.218;5.158;2023-01-23T06:28:45;18.55;;;10.43;;
69754;SDS011;57023;52.218;5.158;2023-01-23T06:31:10;18.17;;;10.07;;
69754;SDS011;57023;52.218;5.158;2023-01-23T06:33:36;16.23;;;9.32;;
69754;SDS011;57023;52.218;5.158;2023-01-23T06:36:02;18.17;;;10.13;;
69754;SDS011;57023;52.218;5.158;2023-01-23T06:38:29;19.05;;;10.40;;
69754;SDS011;57023;52.218;5.158;2023-01-23T06:40:54;17.13;;;9.75;;
69754;SDS011;57023;52.218;5.158;2023-01-23T06:43:20;19.52;;;10.75;;
69754;SDS011;57023;52.218;5.158;2023-01-23T06:45:46;17.63;;;9.80;;
69754;SDS011;57023;52.218;5.158;2023-01-23T06:48:12;19.52;;;10.18;;
69754;SDS011;57023;52.218;5.158;2023-01-23T06:50:40;19.48;;;10.55;;
69754;SDS011;57023;52.218;5.158;2023-01-23T06:53:07;20.15;;;10.48;;
69754;SDS011;57023;52.218;5.158;2023-01-23T06:55:33;21.08;;;10.93;;
69754;SDS011;57023;52.218;5.158;2023-01-23T06:57:58;17.73;;;10.50;;
69754;SDS011;57023;52.218;5.158;2023-01-23T07:00:24;21.00;;;11.10;;
69754;SDS011;57023;52.218;5.158;2023-01-23T07:02:51;20.13;;;10.70;;
69754;SDS011;57023;52.218;5.158;2023-01-23T07:05:17;21.77;;;10.80;;
69754;SDS011;57023;52.218;5.158;2023-01-23T07:07:42;19.02;;;10.82;;
69754;SDS011;57023;52.218;5.158;2023-01-23T07:10:08;17.23;;;9.80;;
69754;SDS011;57023;52.218;5.158;2023-01-23T07:12:34;18.70;;;10.13;;
69754;SDS011;57023;52.218;5.158;2023-01-23T07:14:59;17.55;;;9.90;;
69754;SDS011;57023;52.218;5.158;2023-01-23T07:17:25;19.95;;;10.27;;
69754;SDS011;57023;52.218;5.158;2023-01-23T07:19:50;20.05;;;10.27;;
69754;SDS011;57023;52.218;5.158;2023-01-23T07:22:16;18.52;;;10.30;;
69754;SDS011;57023;52.218;5.158;2023-01-23T07:24:42;18.38;;;10.23;;
69754;SDS011;57023;52.218;5.158;2023-01-23T07:27:07;18.42;;;9.90;;
69754;SDS011;57023;52.218;5.158;2023-01-23T07:29:33;16.05;;;10.10;;
69754;SDS011;57023;52.218;5.158;2023-01-23T07:31:58;19.90;;;10.43;;
69754;SDS011;57023;52.218;5.158;2023-01-23T07:34:25;23.67;;;10.13;;
69754;SDS011;57023;52.218;5.158;2023-01-23T07:36:50;20.17;;;10.90;;
69754;SDS011;57023;52.218;5.158;2023-01-23T07:39:15;19.15;;;10.07;;
69754;SDS011;57023;52.218;5.158;2023-01-23T07:41:41;21.23;;;10.45;;
69754;SDS011;57023;52.218;5.158;2023-01-23T07:44:06;16.38;;;9.82;;
69754;SDS011;57023;52.218;5.158;2023-01-23T07:46:31;20.23;;;10.18;;
69754;SDS011;57023;52.218;5.158;2023-01-23T07:48:57;20.67;;;10.52;;
69754;SDS011;57023;52.218;5.158;2023-01-23T07:51:22;18.55;;;10.25;;
69754;SDS011;57023;52.218;5.158;2023-01-23T07:53:48;20.63;;;10.65;;
69754;SDS011;57023;52.218;5.158;2023-01-23T07:56:13;18.17;;;10.32;;
69754;SDS011;57023;52.218;5.158;2023-01-23T07:58:38;19.38;;;9.95;;
69754;SDS011;57023;52.218;5.158;2023-01-23T08:01:07;21.50;;;11.05;;
69754;SDS011;57023;52.218;5.158;2023-01-23T08:03:33;18.10;;;11.15;;
69754;SDS011;57023;52.218;5.158;2023-01-23T08:05:59;18.30;;;10.25;;
69754;SDS011;57023;52.218;5.158;2023-01-23T08:08:24;18.50;;;10.00;;
69754;SDS011;57023;52.218;5.158;2023-01-23T08:10:49;20.73;;;10.60;;
69754;SDS011;57023;52.218;5.158;2023-01-23T08:13:15;21.58;;;11.32;;
69754;SDS011;57023;52.218;5.158;2023-01-23T08:15:40;19.80;;;10.73;;
69754;SDS011;57023;52.218;5.158;2023-01-23T08:18:05;22.08;;;11.20;;
69754;SDS011;57023;52.218;5.158;2023-01-23T08:20:31;19.83;;;11.15;;
69754;SDS011;57023;52.218;5.158;2023-01-23T08:22:56;18.08;;;11.18;;
69754;SDS011;57023;52.218;5.158;2023-01-23T08:25:22;17.50;;;10.20;;
69754;SDS011;57023;52.218;5.158;2023-01-23T08:27:48;21.25;;;11.35;;
69754;SDS011;57023;52.218;5.158;2023-01-23T08:30:13;21.20;;;11.23;;
69754;SDS011;57023;52.218;5.158;2023-01-23T08:32:39;22.13;;;11.02;;
69754;SDS011;57023;52.218;5.158;2023-01-23T08:35:04;20.77;;;11.32;;
69754;SDS011;57023;52.218;5.158;2023-01-23T08:37:30;20.20;;;10.75;;
69754;SDS011;57023;52.218;5.158;2023-01-23T08:39:57;18.65;;;10.85;;
69754;SDS011;57023;52.218;5.158;2023-01-23T08:42:22;19.75;;;10.90;;
69754;SDS011;57023;52.218;5.158;2023-01-23T08:44:47;25.42;;;11.70;;
69754;SDS011;57023;52.218;5.158;2023-01-23T08:47:13;24.83;;;12.32;;
69754;SDS011;57023;52.218;5.158;2023-01-23T08:49:38;19.90;;;10.70;;
69754;SDS011;57023;52.218;5.158;2023-01-23T08:52:03;18.83;;;11.02;;
69754;SDS011;57023;52.218;5.158;2023-01-23T08:54:30;20.70;;;11.45;;
69754;SDS011;57023;52.218;5.158;2023-01-23T08:56:55;20.58;;;11.70;;
69754;SDS011;57023;52.218;5.158;2023-01-23T08:59:21;18.50;;;11.15;;
69754;SDS011;57023;52.218;5.158;2023-01-23T09:01:46;20.65;;;10.63;;
69754;SDS011;57023;52.218;5.158;2023-01-23T09:04:12;18.75;;;11.25;;
69754;SDS011;57023;52.218;5.158;2023-01-23T09:06:37;20.52;;;11.32;;
69754;SDS011;57023;52.218;5.158;2023-01-23T09:09:02;19.83;;;10.57;;
69754;SDS011;57023;52.218;5.158;2023-01-23T09:11:28;18.98;;;10.85;;
69754;SDS011;57023;52.218;5.158;2023-01-23T09:13:53;16.75;;;10.20;;
69754;SDS011;57023;52.218;5.158;2023-01-23T09:16:18;21.10;;;11.48;;
69754;SDS011;57023;52.218;5.158;2023-01-23T09:18:44;20.52;;;10.82;;
69754;SDS011;57023;52.218;5.158;2023-01-23T09:21:10;22.10;;;11.60;;
69754;SDS011;57023;52.218;5.158;2023-01-23T09:23:37;21.75;;;11.57;;
69754;SDS011;57023;52.218;5.158;2023-01-23T09:26:07;19.60;;;11.50;;
69754;SDS011;57023;52.218;5.158;2023-01-23T09:28:37;18.90;;;11.38;;
69754;SDS011;57023;52.218;5.158;2023-01-23T09:31:04;20.27;;;11.10;;
69754;SDS011;57023;52.218;5.158;2023-01-23T09:33:31;20.83;;;11.02;;
69754;SDS011;57023;52.218;5.158;2023-01-23T09:35:57;18.35;;;10.88;;
69754;SDS011;57023;52.218;5.158;2023-01-23T09:38:23;18.83;;;10.50;;
69754;SDS011;57023;52.218;5.158;2023-01-23T09:40:49;19.52;;;10.52;;
69754;SDS011;57023;52.218;5.158;2023-01-23T09:43:27;18.77;;;11.27;;
69754;SDS011;57023;52.218;5.158;2023-01-23T09:46:16;18.77;;;10.77;;
69754;SDS011;57023;52.218;5.158;2023-01-23T09:48:47;22.65;;;10.93;;
69754;SDS011;57023;52.218;5.158;2023-01-23T09:54:10;18.42;;;11.07;;
69754;SDS011;57023;52.218;5.158;2023-01-23T09:56:42;19.95;;;10.93;;
69754;SDS011;57023;52.218;5.158;2023-01-23T10:01:35;18.05;;;10.55;;
69754;SDS011;57023;52.218;5.158;2023-01-23T10:04:00;18.15;;;10.57;;
69754;SDS011;57023;52.218;5.158;2023-01-23T10:06:27;19.15;;;11.02;;
69754;SDS011;57023;52.218;5.158;2023-01-23T10:11:34;21.85;;;11.75;;
69754;SDS011;57023;52.218;5.158;2023-01-23T10:14:23;18.13;;;10.70;;
69754;SDS011;57023;52.218;5.158;2023-01-23T10:20:02;18.17;;;10.60;;
69754;SDS011;57023;52.218;5.158;2023-01-23T10:25:24;18.30;;;10.48;;
69754;SDS011;57023;52.218;5.158;2023-01-23T10:27:51;19.33;;;11.18;;
69754;SDS011;57023;52.218;5.158;2023-01-23T10:41:09;15.32;;;9.30;;
69754;SDS011;57023;52.218;5.158;2023-01-23T10:43:38;17.00;;;10.60;;
69754;SDS011;57023;52.218;5.158;2023-01-23T10:46:16;16.35;;;10.00;;
69754;SDS011;57023;52.218;5.158;2023-01-23T10:48:45;16.63;;;9.30;;
69754;SDS011;57023;52.218;5.158;2023-01-23T10:59:20;15.70;;;9.88;;
69754;SDS011;57023;52.218;5.158;2023-01-23T11:04:40;15.30;;;10.27;;
69754;SDS011;57023;52.218;5.158;2023-01-23T11:09:45;16.75;;;9.00;;
69754;SDS011;57023;52.218;5.158;2023-01-23T11:12:18;14.43;;;9.10;;
69754;SDS011;57023;52.218;5.158;2023-01-23T11:14:48;14.88;;;9.65;;
69754;SDS011;57023;52.218;5.158;2023-01-23T11:17:18;16.85;;;9.20;;
69754;SDS011;57023;52.218;5.158;2023-01-23T11:19:46;17.67;;;10.48;;
69754;SDS011;57023;52.218;5.158;2023-01-23T11:22:27;16.10;;;9.48;;
69754;SDS011;57023;52.218;5.158;2023-01-23T11:27:57;15.40;;;9.40;;
69754;SDS011;57023;52.218;5.158;2023-01-23T11:30:26;15.88;;;9.45;;
69754;SDS011;57023;52.218;5.158;2023-01-23T11:32:56;16.63;;;9.60;;
69754;SDS011;57023;52.218;5.158;2023-01-23T11:35:29;13.90;;;8.85;;
69754;SDS011;57023;52.218;5.158;2023-01-23T11:38:08;16.48;;;9.38;;
69754;SDS011;57023;52.218;5.158;2023-01-23T11:40:35;15.20;;;8.80;;
69754;SDS011;57023;52.218;5.158;2023-01-23T11:43:00;14.68;;;9.63;;
69754;SDS011;57023;52.218;5.158;2023-01-23T11:53:40;12.35;;;8.68;;
69754;SDS011;57023;52.218;5.158;2023-01-23T11:58:50;12.43;;;8.18;;
69754;SDS011;57023;52.218;5.158;2023-01-23T12:01:27;13.07;;;7.95;;
69754;SDS011;57023;52.218;5.158;2023-01-23T12:07:05;12.48;;;7.32;;
69754;SDS011;57023;52.218;5.158;2023-01-23T12:12:31;10.23;;;6.93;;
69754;SDS011;57023;52.218;5.158;2023-01-23T12:18:10;9.68;;;7.20;;
69754;SDS011;57023;52.218;5.158;2023-01-23T12:25:44;10.43;;;6.60;;
69754;SDS011;57023;52.218;5.158;2023-01-23T12:34:16;10.82;;;6.60;;
69754;SDS011;57023;52.218;5.158;2023-01-23T12:45:31;8.30;;;6.07;;
69754;SDS011;57023;52.218;5.158;2023-01-23T12:50:34;8.70;;;5.78;;
69754;SDS011;57023;52.218;5.158;2023-01-23T12:53:09;8.93;;;5.53;;
69754;SDS011;57023;52.218;5.158;2023-01-23T12:55:50;8.00;;;5.43;;
69754;SDS011;57023;52.218;5.158;2023-01-23T12:58:19;8.60;;;5.47;;
69754;SDS011;57023;52.218;5.158;2023-01-23T13:03:38;7.22;;;5.43;;
69754;SDS011;57023;52.218;5.158;2023-01-23T13:16:56;7.68;;;5.00;;
69754;SDS011;57023;52.218;5.158;2023-01-23T13:19:27;8.45;;;5.13;;
69754;SDS011;57023;52.218;5.158;2023-01-23T13:22:22;7.85;;;5.32;;
69754;SDS011;57023;52.218;5.158;2023-01-23T13:27:34;7.38;;;4.78;;
69754;SDS011;57023;52.218;5.158;2023-01-23T13:32:27;8.60;;;5.40;;
69754;SDS011;57023;52.218;5.158;2023-01-23T13:34:53;8.18;;;5.15;;
69754;SDS011;57023;52.218;5.158;2023-01-23T13:37:30;7.25;;;4.63;;
69754;SDS011;57023;52.218;5.158;2023-01-23T13:42:35;6.20;;;4.50;;
69754;SDS011;57023;52.218;5.158;2023-01-23T13:48:28;8.13;;;4.63;;
69754;SDS011;57023;52.218;5.158;2023-01-23T13:51:10;6.10;;;4.30;;
69754;SDS011;57023;52.218;5.158;2023-01-23T13:53:42;6.07;;;4.22;;
69754;SDS011;57023;52.218;5.158;2023-01-23T13:56:27;7.53;;;4.35;;
69754;SDS011;57023;52.218;5.158;2023-01-23T13:59:11;6.70;;;4.65;;
69754;SDS011;57023;52.218;5.158;2023-01-23T14:01:46;6.93;;;4.57;;
69754;SDS011;57023;52.218;5.158;2023-01-23T14:04:33;6.55;;;4.55;;
69754;SDS011;57023;52.218;5.158;2023-01-23T14:07:31;7.00;;;4.75;;
69754;SDS011;57023;52.218;5.158;2023-01-23T14:12:39;6.23;;;4.33;;
69754;SDS011;57023;52.218;5.158;2023-01-23T14:15:18;6.30;;;4.50;;
69754;SDS011;57023;52.218;5.158;2023-01-23T14:18:03;6.00;;;4.10;;
69754;SDS011;57023;52.218;5.158;2023-01-23T14:20:30;6.03;;;4.03;;
69754;SDS011;57023;52.218;5.158;2023-01-23T14:23:03;6.57;;;4.47;;
69754;SDS011;57023;52.218;5.158;2023-01-23T14:25:30;7.25;;;4.85;;
69754;SDS011;57023;52.218;5.158;2023-01-23T14:28:02;8.82;;;5.43;;
69754;SDS011;57023;52.218;5.158;2023-01-23T14:30:29;6.25;;;4.55;;
69754;SDS011;57023;52.218;5.158;2023-01-23T14:32:55;6.93;;;4.88;;
69754;SDS011;57023;52.218;5.158;2023-01-23T14:37:55;7.40;;;5.28;;
69754;SDS011;57023;52.218;5.158;2023-01-23T14:40:23;7.80;;;5.32;;
69754;SDS011;57023;52.218;5.158;2023-01-23T14:45:28;8.60;;;5.95;;
69754;SDS011;57023;52.218;5.158;2023-01-23T14:47:54;9.70;;;7.20;;
69754;SDS011;57023;52.218;5.158;2023-01-23T14:50:20;9.75;;;6.40;;
69754;SDS011;57023;52.218;5.158;2023-01-23T14:52:58;10.15;;;7.25;;
69754;SDS011;57023;52.218;5.158;2023-01-23T14:55:25;10.38;;;7.05;;
69754;SDS011;57023;52.218;5.158;2023-01-23T14:57:51;10.32;;;6.70;;
69754;SDS011;57023;52.218;5.158;2023-01-23T15:00:18;10.27;;;6.85;;
69754;SDS011;57023;52.218;5.158;2023-01-23T15:02:44;10.88;;;7.57;;
69754;SDS011;57023;52.218;5.158;2023-01-23T15:07:42;9.82;;;7.30;;
69754;SDS011;57023;52.218;5.158;2023-01-23T15:10:13;11.07;;;7.25;;
69754;SDS011;57023;52.218;5.158;2023-01-23T15:12:39;13.35;;;8.65;;
69754;SDS011;57023;52.218;5.158;2023-01-23T15:15:19;13.65;;;9.43;;
69754;SDS011;57023;52.218;5.158;2023-01-23T15:17:45;11.90;;;7.78;;
69754;SDS011;57023;52.218;5.158;2023-01-23T15:20:25;12.18;;;7.00;;
69754;SDS011;57023;52.218;5.158;2023-01-23T15:22:51;11.15;;;7.05;;
69754;SDS011;57023;52.218;5.158;2023-01-23T15:25:29;10.85;;;7.50;;
69754;SDS011;57023;52.218;5.158;2023-01-23T15:27:56;9.70;;;6.60;;
69754;SDS011;57023;52.218;5.158;2023-01-23T15:30:29;9.93;;;6.85;;
69754;SDS011;57023;52.218;5.158;2023-01-23T15:33:18;10.98;;;6.93;;
69754;SDS011;57023;52.218;5.158;2023-01-23T15:35:50;10.15;;;6.97;;
69754;SDS011;57023;52.218;5.158;2023-01-23T15:38:16;11.55;;;7.50;;
69754;SDS011;57023;52.218;5.158;2023-01-23T15:40:41;10.55;;;7.45;;
69754;SDS011;57023;52.218;5.158;2023-01-23T15:43:11;9.55;;;6.80;;
69754;SDS011;57023;52.218;5.158;2023-01-23T15:45:39;10.45;;;6.60;;
69754;SDS011;57023;52.218;5.158;2023-01-23T15:48:05;9.65;;;6.57;;
69754;SDS011;57023;52.218;5.158;2023-01-23T15:50:30;11.32;;;7.05;;
69754;SDS011;57023;52.218;5.158;2023-01-23T15:52:57;10.38;;;7.20;;
69754;SDS011;57023;52.218;5.158;2023-01-23T15:55:23;10.70;;;6.65;;
69754;SDS011;57023;52.218;5.158;2023-01-23T15:57:49;10.48;;;7.28;;
69754;SDS011;57023;52.218;5.158;2023-01-23T16:00:18;11.77;;;7.07;;
69754;SDS011;57023;52.218;5.158;2023-01-23T16:02:45;10.75;;;6.97;;
69754;SDS011;57023;52.218;5.158;2023-01-23T16:05:10;10.55;;;6.75;;
69754;SDS011;57023;52.218;5.158;2023-01-23T16:07:37;13.05;;;8.43;;
69754;SDS011;57023;52.218;5.158;2023-01-23T16:10:04;11.95;;;7.82;;
69754;SDS011;57023;52.218;5.158;2023-01-23T16:12:39;13.20;;;8.85;;
69754;SDS011;57023;52.218;5.158;2023-01-23T16:15:14;9.73;;;6.93;;
69754;SDS011;57023;52.218;5.158;2023-01-23T16:17:42;13.05;;;8.80;;
69754;SDS011;57023;52.218;5.158;2023-01-23T16:20:11;9.90;;;7.35;;
69754;SDS011;57023;52.218;5.158;2023-01-23T16:22:38;12.93;;;9.13;;
69754;SDS011;57023;52.218;5.158;2023-01-23T16:25:03;11.07;;;7.57;;
69754;SDS011;57023;52.218;5.158;2023-01-23T16:27:29;10.73;;;6.82;;
69754;SDS011;57023;52.218;5.158;2023-01-23T16:29:54;9.95;;;6.97;;
69754;SDS011;57023;52.218;5.158;2023-01-23T16:32:20;11.77;;;7.70;;
69754;SDS011;57023;52.218;5.158;2023-01-23T16:34:45;10.32;;;7.10;;
69754;SDS011;57023;52.218;5.158;2023-01-23T16:37:14;11.30;;;7.72;;
69754;SDS011;57023;52.218;5.158;2023-01-23T16:39:41;12.85;;;8.27;;
69754;SDS011;57023;52.218;5.158;2023-01-23T16:42:14;12.77;;;8.20;;